Quesnel, Quesnel Airport (CYQZ)

NameQuesnel Airport
CityQuesnel
CountryCanada
ICAOCYQZ
IATAYQZ
Altitude545 m
CoordinatesGoogle Map
Live Air TrafficLiveATC.net
METARCYQZ 222000Z AUTO VRB03KT 9SM CLR 24/14 A2997 RMK SLP154 DENSITY ALT 3100FT
2019-07-22 20:00:00 Wind: North (0°) 1.54 m/s - Visibility: 14484.06 m - Temperature: 24 °C - Dew point: 14 °C - Humidity: 53.7% - Pressure: 1014.9 hPa
Statistics

The table below shows the detailed information of all flights to/from Quesnel, Quesnel Airport (CYQZ).